Time,TemperatureF,DewpointF,PressureIn,WindDirection,WindDirectionDegrees,WindSpeedMPH,WindSpeedGustMPH,Humidity,HourlyPrecipIn,Conditions,Clouds,dailyrainin,SolarRadiationWatts/m^2,SoftwareType,DateUTC
2013-03-27 00:00:00,33.3,27.8,30.08,NE,49,0.0,3.0,80,0.00,,CLR,0.04,0.00,VWS V14.01,2013-03-27 04:00:00,
2013-03-27 00:02:00,33.3,27.8,30.08,NE,49,0.0,3.0,80,0.00,,CLR,0.04,0.00,VWS V14.01,2013-03-27 04:02:00,
2013-03-27 00:07:00,33.4,27.9,30.08,North,0,1.0,3.0,80,0.00,,CLR,0.00,0.00,VWS V14.01,2013-03-27 04:07:00,
2013-03-27 00:12:00,33.6,28.4,30.08,North,354,4.0,7.0,81,0.00,,CLR,0.00,0.00,VWS V14.01,2013-03-27 04:12:00,
2013-03-27 00:17:00,34.0,28.5,30.08,NNW,328,3.0,7.0,80,0.00,,CLR,0.00,0.00,VWS V14.01,2013-03-27 04:17:00,
2013-03-27 00:22:00,34.6,28.5,30.08,North,11,2.0,3.0,78,0.00,,CLR,0.00,0.00,VWS V14.01,2013-03-27 04:22:00,
2013-03-27 00:27:00,34.9,28.4,30.08,NNE,31,6.0,8.0,77,0.00,,CLR,0.00,0.00,VWS V14.01,2013-03-27 04:27:00,
2013-03-27 00:32:00,34.8,28.3,30.08,North,0,2.0,2.0,77,0.00,,CLR,0.00,0.00,VWS V14.01,2013-03-27 04:32:00,
2013-03-27 00:37:00,34.8,28.3,30.08,NE,34,10.0,10.0,77,0.00,,CLR,0.00,0.00,VWS V14.01,2013-03-27 04:37:00,
2013-03-27 00:43:00,34.9,28.1,30.08,NNW,342,2.0,5.0,76,0.00,,CLR,0.00,0.00,VWS V14.01,2013-03-27 04:43:00,
2013-03-27 00:48:00,34.9,28.1,30.08,NNE,13,6.0,6.0,76,0.00,,CLR,0.00,0.00,VWS V14.01,2013-03-27 04:48:00,
2013-03-27 00:53:00,35.0,27.9,30.08,North,0,3.0,6.0,75,0.00,,CLR,0.00,0.00,VWS V14.01,2013-03-27 04:53:00,
2013-03-27 00:58:00,35.0,27.6,30.08,North,0,4.0,6.0,74,0.00,,CLR,0.00,0.00,VWS V14.01,2013-03-27 04:58:00,
2013-03-27 01:03:00,35.0,27.6,30.08,NNW,328,8.0,8.0,74,0.00,,CLR,0.00,0.00,VWS V14.01,2013-03-27 05:03:00,
2013-03-27 01:08:00,35.2,27.4,30.08,North,350,8.0,10.0,73,0.00,,CLR,0.00,0.00,VWS V14.01,2013-03-27 05:08:00,
2013-03-27 01:13:00,35.3,27.9,30.08,North,0,4.0,9.0,74,0.00,,CLR,0.00,0.00,VWS V14.01,2013-03-27 05:13:00,
2013-03-27 01:18:00,35.3,27.9,30.08,North,0,5.0,18.0,74,0.00,,CLR,0.00,0.00,VWS V14.01,2013-03-27 05:18:00,
2013-03-27 01:23:00,35.2,28.1,30.08,North,6,5.0,9.0,75,0.00,,CLR,0.00,0.00,VWS V14.01,2013-03-27 05:23:00,
2013-03-27 01:28:00,35.2,28.4,30.08,North,0,2.0,13.0,76,0.00,,CLR,0.00,0.00,VWS V14.01,2013-03-27 05:28:00,
2013-03-27 01:34:00,35.0,28.2,30.08,North,0,0.0,2.0,76,0.00,,CLR,0.00,0.00,VWS V14.01,2013-03-27 05:34:00,
2013-03-27 01:39:00,34.9,28.1,30.08,North,357,0.0,2.0,76,0.00,,CLR,0.00,0.00,VWS V14.01,2013-03-27 05:39:00,
2013-03-27 01:44:00,34.6,27.8,30.08,North,354,0.0,0.0,76,0.00,,CLR,0.00,0.00,VWS V14.01,2013-03-27 05:44:00,
2013-03-27 01:49:00,34.2,27.4,30.08,WSW,253,1.0,3.0,76,0.00,,CLR,0.00,0.00,VWS V14.01,2013-03-27 05:49:00,
2013-03-27 01:54:00,33.9,27.5,30.08,SW,216,3.0,5.0,77,0.00,,CLR,0.00,0.00,VWS V14.01,2013-03-27 05:54:00,
2013-03-27 01:59:00,33.7,27.6,30.08,SW,230,0.0,5.0,78,0.00,,CLR,0.00,0.00,VWS V14.01,2013-03-27 05:59:00,
2013-03-27 02:05:00,33.4,27.3,30.08,SW,229,1.0,2.0,78,0.00,,CLR,0.00,0.00,VWS V14.01,2013-03-27 06:05:00,
2013-03-27 02:10:00,33.1,27.0,30.08,SW,229,0.0,2.0,78,0.00,,CLR,0.00,0.00,VWS V14.01,2013-03-27 06:10:00,
2013-03-27 02:15:00,32.7,26.9,30.08,SW,227,1.0,2.0,79,0.00,,CLR,0.00,0.00,VWS V14.01,2013-03-27 06:15:00,
2013-03-27 02:20:00,32.4,26.9,30.08,SW,227,0.0,2.0,80,0.00,,CLR,0.00,0.00,VWS V14.01,2013-03-27 06:20:00,
2013-03-27 02:25:00,32.2,26.7,30.08,SSW,212,0.0,2.0,80,0.00,,CLR,0.00,0.00,VWS V14.01,2013-03-27 06:25:00,
2013-03-27 02:30:00,32.1,26.9,30.08,SSW,212,0.0,2.0,81,0.00,,CLR,0.00,0.00,VWS V14.01,2013-03-27 06:30:00,
2013-03-27 02:35:00,31.9,26.7,30.09,SSW,212,2.0,3.0,81,0.00,,CLR,0.00,0.00,VWS V14.01,2013-03-27 06:35:00,
2013-03-27 02:40:00,31.9,27.0,30.09,SSW,208,2.0,4.0,82,0.00,,CLR,0.00,0.00,VWS V14.01,2013-03-27 06:40:00,
2013-03-27 02:45:00,32.1,27.2,30.09,SSW,193,0.0,3.0,82,0.00,,CLR,0.00,0.00,VWS V14.01,2013-03-27 06:45:00,
2013-03-27 02:50:00,32.1,26.9,30.09,ENE,66,0.0,3.0,81,0.00,,CLR,0.00,0.00,VWS V14.01,2013-03-27 06:50:00,
2013-03-27 02:55:00,32.2,27.0,30.09,SW,236,1.0,5.0,81,0.00,,CLR,0.00,0.00,VWS V14.01,2013-03-27 06:55:00,
2013-03-27 03:00:00,31.9,26.7,30.09,WSW,256,0.0,5.0,81,0.00,,CLR,0.00,0.00,VWS V14.01,2013-03-27 07:00:00,
2013-03-27 03:05:00,31.8,26.6,30.09,SSE,162,0.0,0.0,81,0.00,,CLR,0.00,0.00,VWS V14.01,2013-03-27 07:05:00,
2013-03-27 03:10:00,31.5,26.4,30.09,West,281,0.0,2.0,81,0.00,,CLR,0.00,0.00,VWS V14.01,2013-03-27 07:10:00,
2013-03-27 03:15:00,31.8,26.6,30.09,SW,224,3.0,6.0,81,0.00,,CLR,0.00,0.00,VWS V14.01,2013-03-27 07:15:00,
2013-03-27 03:20:00,32.4,26.6,30.09,SW,234,5.0,6.0,79,0.00,,CLR,0.00,0.00,VWS V14.01,2013-03-27 07:20:00,
2013-03-27 03:26:00,32.7,26.3,30.09,West,274,0.0,7.0,77,0.00,,CLR,0.00,0.00,VWS V14.01,2013-03-27 07:26:00,
2013-03-27 03:31:00,33.1,26.0,30.09,SW,226,1.0,7.0,75,0.00,,CLR,0.00,0.00,VWS V14.01,2013-03-27 07:31:00,
2013-03-27 03:36:00,33.3,25.9,30.08,WSW,244,1.0,5.0,74,0.00,,CLR,0.00,0.00,VWS V14.01,2013-03-27 07:36:00,
2013-03-27 03:41:00,33.3,25.6,30.08,SW,232,0.0,5.0,73,0.00,,CLR,0.00,0.00,VWS V14.01,2013-03-27 07:41:00,
2013-03-27 03:46:00,33.4,25.0,30.08,SSW,213,1.0,6.0,71,0.00,,CLR,0.00,0.00,VWS V14.01,2013-03-27 07:46:00,
2013-03-27 03:51:00,33.6,24.9,30.08,SW,230,1.0,6.0,70,0.00,,CLR,0.00,0.00,VWS V14.01,2013-03-27 07:51:00,
2013-03-27 03:57:00,33.4,24.7,30.08,SSW,205,1.0,5.0,70,0.00,,CLR,0.00,0.00,VWS V14.01,2013-03-27 07:57:00,
2013-03-27 04:02:00,33.6,24.2,30.08,WNW,296,1.0,7.0,68,0.00,,CLR,0.00,0.00,VWS V14.01,2013-03-27 08:02:00,
2013-03-27 04:07:00,34.0,23.5,30.08,WNW,289,4.0,6.0,65,0.00,,CLR,0.00,0.00,VWS V14.01,2013-03-27 08:07:00,
2013-03-27 04:12:00,34.2,23.3,30.08,WSW,246,2.0,6.0,64,0.00,,CLR,0.00,0.00,VWS V14.01,2013-03-27 08:12:00,
2013-03-27 04:17:00,34.3,23.8,30.08,SW,217,0.0,6.0,65,0.00,,CLR,0.00,0.00,VWS V14.01,2013-03-27 08:17:00,
2013-03-27 04:22:00,34.2,24.0,30.08,SW,234,0.0,0.0,66,0.00,,CLR,0.00,0.00,VWS V14.01,2013-03-27 08:22:00,
2013-03-27 04:27:00,34.0,23.5,30.08,SW,234,1.0,3.0,65,0.00,,CLR,0.00,0.00,VWS V14.01,2013-03-27 08:27:00,
2013-03-27 04:32:00,33.9,24.1,30.08,WSW,247,0.0,0.0,67,0.00,,CLR,0.00,0.00,VWS V14.01,2013-03-27 08:32:00,
2013-03-27 04:37:00,33.6,23.5,30.08,WSW,240,0.0,3.0,66,0.00,,CLR,0.00,0.00,VWS V14.01,2013-03-27 08:37:00,
2013-03-27 04:42:00,33.4,23.3,30.08,SW,236,1.0,2.0,66,0.00,,CLR,0.00,0.00,VWS V14.01,2013-03-27 08:42:00,
2013-03-27 04:47:00,33.1,23.4,30.08,West,268,0.0,5.0,67,0.00,,CLR,0.00,0.00,VWS V14.01,2013-03-27 08:47:00,
2013-03-27 04:53:00,33.1,23.4,30.08,West,268,0.0,0.0,67,0.00,,CLR,0.00,0.00,VWS V14.01,2013-03-27 08:53:00,
2013-03-27 04:58:00,33.0,22.9,30.08,West,268,0.0,0.0,66,0.00,,CLR,0.00,0.00,VWS V14.01,2013-03-27 08:58:00,
2013-03-27 05:03:00,32.8,23.1,30.08,West,268,0.0,0.0,67,0.00,,CLR,0.00,0.00,VWS V14.01,2013-03-27 09:03:00,
2013-03-27 05:08:00,32.7,23.0,30.08,SW,233,1.0,5.0,67,0.00,,CLR,0.00,0.00,VWS V14.01,2013-03-27 09:08:00,
2013-03-27 05:13:00,32.7,23.3,30.08,SW,232,1.0,3.0,68,0.00,,CLR,0.00,0.00,VWS V14.01,2013-03-27 09:13:00,
2013-03-27 05:18:00,32.7,23.0,30.09,WSW,254,1.0,3.0,67,0.00,,CLR,0.00,0.00,VWS V14.01,2013-03-27 09:18:00,
2013-03-27 05:23:00,33.1,22.6,30.09,West,281,2.0,6.0,65,0.00,,CLR,0.00,0.00,VWS V14.01,2013-03-27 09:23:00,
2013-03-27 05:28:00,33.6,22.7,30.09,WSW,237,2.0,6.0,64,0.00,,CLR,0.00,0.00,VWS V14.01,2013-03-27 09:28:00,
2013-03-27 05:33:00,33.6,22.7,30.08,WSW,254,1.0,3.0,64,0.00,,CLR,0.00,0.00,VWS V14.01,2013-03-27 09:33:00,
2013-03-27 05:38:00,33.6,22.7,30.08,West,278,3.0,3.0,64,0.00,,CLR,0.00,0.00,VWS V14.01,2013-03-27 09:38:00,
2013-03-27 05:43:00,33.4,22.5,30.08,West,278,0.0,0.0,64,0.00,,CLR,0.00,0.00,VWS V14.01,2013-03-27 09:43:00,
2013-03-27 05:49:00,33.3,22.5,30.08,WSW,241,0.0,3.0,64,0.00,,CLR,0.00,0.00,VWS V14.01,2013-03-27 09:49:00,
2013-03-27 05:54:00,33.1,22.3,30.08,SW,224,1.0,1.0,64,0.00,,CLR,0.00,0.00,VWS V14.01,2013-03-27 09:54:00,
2013-03-27 05:59:00,32.8,22.3,30.08,SW,233,0.0,2.0,65,0.00,,CLR,0.00,0.00,VWS V14.01,2013-03-27 09:59:00,
2013-03-27 06:04:00,32.8,22.3,30.08,SW,222,1.0,3.0,65,0.00,,CLR,0.00,0.00,VWS V14.01,2013-03-27 10:04:00,
2013-03-27 06:09:00,32.5,22.1,30.08,WSW,237,0.0,3.0,65,0.00,,CLR,0.00,0.00,VWS V14.01,2013-03-27 10:09:00,
2013-03-27 06:14:00,32.5,22.1,30.08,SSW,206,1.0,2.0,65,0.00,,CLR,0.00,0.00,VWS V14.01,2013-03-27 10:14:00,
2013-03-27 06:19:00,32.2,22.1,30.08,WSW,246,3.0,5.0,66,0.00,,CLR,0.00,0.00,VWS V14.01,2013-03-27 10:19:00,
2013-03-27 06:24:00,32.2,22.1,30.08,West,264,0.0,2.0,66,0.00,,CLR,0.00,0.00,VWS V14.01,2013-03-27 10:24:00,
2013-03-27 06:29:00,32.2,22.1,30.08,NNW,333,1.0,7.0,66,0.00,,CLR,0.00,0.00,VWS V14.01,2013-03-27 10:29:00,
2013-03-27 06:34:00,32.2,22.1,30.09,WSW,241,3.0,3.0,66,0.00,,CLR,0.00,0.00,VWS V14.01,2013-03-27 10:34:00,
2013-03-27 06:39:00,32.2,22.1,30.09,WSW,254,1.0,3.0,66,0.00,,CLR,0.00,0.00,VWS V14.01,2013-03-27 10:39:00,
2013-03-27 06:45:00,32.1,22.0,30.09,WSW,254,0.0,0.0,66,0.00,,CLR,0.00,0.00,VWS V14.01,2013-03-27 10:45:00,
2013-03-27 06:50:00,31.8,21.8,30.09,WSW,254,0.0,0.0,66,0.00,,CLR,0.00,0.00,VWS V14.01,2013-03-27 10:50:00,
2013-03-27 06:55:00,31.5,21.8,30.09,WSW,254,1.0,1.0,67,0.00,,CLR,0.00,0.00,VWS V14.01,2013-03-27 10:55:00,
2013-03-27 07:00:00,31.4,21.7,30.09,WSW,257,0.0,2.0,67,0.00,,CLR,0.00,0.00,VWS V14.01,2013-03-27 11:00:00,
2013-03-27 07:05:00,31.4,21.7,30.10,South,191,0.0,0.0,67,0.00,,CLR,0.00,0.00,VWS V14.01,2013-03-27 11:05:00,
2013-03-27 07:10:00,30.9,21.9,30.10,SE,137,0.0,3.0,69,0.00,,CLR,0.00,7.00,VWS V14.01,2013-03-27 11:10:00,
2013-03-27 07:15:00,31.1,22.5,30.10,SSE,154,1.0,1.0,70,0.00,,CLR,0.00,9.00,VWS V14.01,2013-03-27 11:15:00,
2013-03-27 07:20:00,30.9,22.3,30.10,SSE,154,0.0,2.0,70,0.00,,CLR,0.00,14.00,VWS V14.01,2013-03-27 11:20:00,
2013-03-27 07:26:00,30.8,22.5,30.10,South,172,0.0,3.0,71,0.00,,CLR,0.00,21.00,VWS V14.01,2013-03-27 11:26:00,
2013-03-27 07:31:00,31.1,22.8,30.10,South,186,0.0,3.0,71,0.00,,CLR,0.00,25.00,VWS V14.01,2013-03-27 11:31:00,
2013-03-27 07:36:00,31.1,22.8,30.11,South,186,0.0,0.0,71,0.00,,CLR,0.00,28.00,VWS V14.01,2013-03-27 11:36:00,
2013-03-27 07:41:00,30.9,23.0,30.11,South,186,0.0,0.0,72,0.00,,CLR,0.00,30.00,VWS V14.01,2013-03-27 11:41:00,
2013-03-27 07:46:00,30.9,23.0,30.11,SSW,192,0.0,0.0,72,0.00,,CLR,0.00,48.00,VWS V14.01,2013-03-27 11:46:00,
2013-03-27 07:51:00,31.4,23.4,30.11,WNW,296,2.0,3.0,72,0.00,,CLR,0.00,67.00,VWS V14.01,2013-03-27 11:51:00,
2013-03-27 07:57:00,31.8,23.5,30.11,WNW,296,0.0,1.0,71,0.00,,CLR,0.00,76.00,VWS V14.01,2013-03-27 11:57:00,
2013-03-27 08:02:00,32.1,23.8,30.12,WNW,296,1.0,3.0,71,0.00,,CLR,0.00,65.00,VWS V14.01,2013-03-27 12:02:00,
2013-03-27 08:07:00,32.2,23.9,30.12,WNW,284,1.0,3.0,71,0.00,,CLR,0.00,53.00,VWS V14.01,2013-03-27 12:07:00,
2013-03-27 08:12:00,32.5,23.8,30.12,West,271,2.0,4.0,70,0.00,,CLR,0.00,56.00,VWS V14.01,2013-03-27 12:12:00,
2013-03-27 08:17:00,32.5,24.2,30.12,West,271,0.0,3.0,71,0.00,,CLR,0.00,63.00,VWS V14.01,2013-03-27 12:17:00,
2013-03-27 08:22:00,32.7,24.4,30.12,NNW,339,0.0,1.0,71,0.00,,CLR,0.00,104.00,VWS V14.01,2013-03-27 12:22:00,
2013-03-27 08:27:00,33.0,25.0,30.12,WNW,288,1.0,5.0,72,0.00,,CLR,0.00,132.00,VWS V14.01,2013-03-27 12:27:00,
2013-03-27 08:32:00,33.7,25.6,30.12,NW,326,4.0,4.0,72,0.00,,CLR,0.00,127.00,VWS V14.01,2013-03-27 12:32:00,
2013-03-27 08:37:00,34.5,26.1,30.12,NNW,337,7.0,8.0,71,0.00,,CLR,0.00,127.00,VWS V14.01,2013-03-27 12:37:00,
2013-03-27 08:42:00,35.2,26.4,30.12,NNW,329,3.0,6.0,70,0.00,,CLR,0.00,121.00,VWS V14.01,2013-03-27 12:42:00,
2013-03-27 08:48:00,35.6,26.5,30.13,NW,325,6.0,11.0,69,0.00,,CLR,0.00,125.00,VWS V14.01,2013-03-27 12:48:00,
2013-03-27 08:53:00,35.9,26.0,30.13,NW,312,13.0,16.0,67,0.00,,CLR,0.00,127.00,VWS V14.01,2013-03-27 12:53:00,
2013-03-27 08:58:00,36.2,26.3,30.13,NNW,342,5.0,16.0,67,0.00,,CLR,0.00,139.00,VWS V14.01,2013-03-27 12:58:00,
2013-03-27 09:03:00,36.3,26.4,30.13,NNE,16,6.0,7.0,67,0.00,,CLR,0.00,148.00,VWS V14.01,2013-03-27 13:03:00,
2013-03-27 09:08:00,36.3,26.0,30.13,NNW,347,3.0,10.0,66,0.00,,CLR,0.00,157.00,VWS V14.01,2013-03-27 13:08:00,
2013-03-27 09:13:00,36.5,26.2,30.13,North,359,3.0,6.0,66,0.00,,CLR,0.00,169.00,VWS V14.01,2013-03-27 13:13:00,
2013-03-27 09:18:00,36.6,26.7,30.13,NNW,328,7.0,7.0,67,0.00,,CLR,0.00,179.00,VWS V14.01,2013-03-27 13:18:00,
2013-03-27 09:23:00,36.8,26.1,30.13,NW,326,2.0,7.0,65,0.00,,CLR,0.00,185.00,VWS V14.01,2013-03-27 13:23:00,
2013-03-27 09:28:00,37.0,26.0,30.13,North,357,6.0,10.0,64,0.00,,CLR,0.00,181.00,VWS V14.01,2013-03-27 13:28:00,
2013-03-27 09:33:00,37.0,26.0,30.14,North,3,8.0,8.0,64,0.00,,CLR,0.00,202.00,VWS V14.01,2013-03-27 13:33:00,
2013-03-27 09:39:00,37.2,26.2,30.14,North,354,3.0,11.0,64,0.00,,CLR,0.00,202.00,VWS V14.01,2013-03-27 13:39:00,
2013-03-27 09:44:00,37.5,26.5,30.14,NNW,333,2.0,6.0,64,0.00,,CLR,0.00,190.00,VWS V14.01,2013-03-27 13:44:00,
2013-03-27 09:49:00,37.6,26.9,30.14,NW,311,1.0,6.0,65,0.00,,CLR,0.00,188.00,VWS V14.01,2013-03-27 13:49:00,
2013-03-27 09:54:00,37.6,25.8,30.14,North,1,7.0,11.0,62,0.00,,CLR,0.00,201.00,VWS V14.01,2013-03-27 13:54:00,
2013-03-27 09:59:00,37.6,26.2,30.14,North,0,5.0,11.0,63,0.00,,CLR,0.00,239.00,VWS V14.01,2013-03-27 13:59:00,
2013-03-27 10:04:00,37.6,25.8,30.14,WNW,296,3.0,10.0,62,0.00,,CLR,0.00,246.00,VWS V14.01,2013-03-27 14:04:00,
2013-03-27 10:09:00,37.9,25.7,30.14,North,0,2.0,11.0,61,0.00,,CLR,0.00,253.00,VWS V14.01,2013-03-27 14:09:00,
2013-03-27 10:14:00,38.1,26.6,30.14,NNW,347,1.0,5.0,63,0.00,,CLR,0.00,273.00,VWS V14.01,2013-03-27 14:14:00,
2013-03-27 10:19:00,38.2,25.5,30.14,WNW,299,8.0,10.0,60,0.00,,CLR,0.00,280.00,VWS V14.01,2013-03-27 14:19:00,
2013-03-27 10:24:00,38.3,25.6,30.14,North,11,7.0,14.0,60,0.00,,CLR,0.00,297.00,VWS V14.01,2013-03-27 14:24:00,
2013-03-27 10:29:00,38.3,26.0,30.14,North,353,2.0,14.0,61,0.00,,CLR,0.00,350.00,VWS V14.01,2013-03-27 14:29:00,
2013-03-27 10:34:00,38.6,25.9,30.14,North,0,4.0,8.0,60,0.00,,CLR,0.00,290.00,VWS V14.01,2013-03-27 14:34:00,
2013-03-27 10:39:00,38.8,25.7,30.14,NNW,336,3.0,13.0,59,0.00,,CLR,0.00,294.00,VWS V14.01,2013-03-27 14:39:00,
2013-03-27 10:44:00,39.1,26.0,30.14,North,350,13.0,13.0,59,0.00,,CLR,0.00,294.00,VWS V14.01,2013-03-27 14:44:00,
2013-03-27 10:49:00,38.9,25.0,30.14,North,356,6.0,13.0,57,0.00,,CLR,0.00,292.00,VWS V14.01,2013-03-27 14:49:00,
2013-03-27 10:54:00,38.8,24.9,30.14,NW,306,13.0,13.0,57,0.00,,CLR,0.00,352.00,VWS V14.01,2013-03-27 14:54:00,
2013-03-27 10:59:00,38.9,25.4,30.14,North,357,6.0,13.0,58,0.00,,CLR,0.00,255.00,VWS V14.01,2013-03-27 14:59:00,
2013-03-27 11:05:00,39.1,25.6,30.14,North,0,8.0,9.0,58,0.00,,CLR,0.00,352.00,VWS V14.01,2013-03-27 15:05:00,
2013-03-27 11:10:00,39.2,25.3,30.14,NNW,340,7.0,10.0,57,0.00,,CLR,0.00,299.00,VWS V14.01,2013-03-27 15:10:00,
2013-03-27 11:15:00,39.2,25.3,30.14,NW,304,8.0,13.0,57,0.00,,CLR,0.00,271.00,VWS V14.01,2013-03-27 15:15:00,
2013-03-27 11:20:00,39.5,25.5,30.14,North,0,6.0,13.0,57,0.00,,CLR,0.00,317.00,VWS V14.01,2013-03-27 15:20:00,
2013-03-27 11:25:00,39.6,25.2,30.14,NNW,329,3.0,11.0,56,0.00,,CLR,0.00,361.00,VWS V14.01,2013-03-27 15:25:00,
2013-03-27 11:30:00,40.2,24.9,30.14,NNW,343,12.0,18.0,54,0.00,,CLR,0.00,1015.00,VWS V14.01,2013-03-27 15:30:00,
2013-03-27 11:35:00,40.5,25.2,30.14,North,0,7.0,16.0,54,0.00,,CLR,0.00,920.00,VWS V14.01,2013-03-27 15:35:00,
2013-03-27 11:40:00,40.9,25.5,30.14,NNW,339,6.0,16.0,54,0.00,,CLR,0.00,982.00,VWS V14.01,2013-03-27 15:40:00,
2013-03-27 11:46:00,41.3,27.2,30.14,North,0,2.0,12.0,57,0.00,,CLR,0.00,982.00,VWS V14.01,2013-03-27 15:46:00,
2013-03-27 11:51:00,41.9,26.9,30.14,North,0,8.0,17.0,55,0.00,,CLR,0.00,758.00,VWS V14.01,2013-03-27 15:51:00,
2013-03-27 11:56:00,41.3,25.9,30.14,NNE,20,11.0,14.0,54,0.00,,CLR,0.00,491.00,VWS V14.01,2013-03-27 15:56:00,
2013-03-27 12:02:00,41.3,26.4,30.14,North,357,8.0,14.0,55,0.00,,CLR,0.00,419.00,VWS V14.01,2013-03-27 16:02:00,
2013-03-27 12:07:00,41.3,25.9,30.14,NNW,342,9.0,16.0,54,0.00,,CLR,0.00,348.00,VWS V14.01,2013-03-27 16:07:00,
2013-03-27 12:12:00,41.1,25.7,30.14,NNW,344,5.0,16.0,54,0.00,,CLR,0.00,255.00,VWS V14.01,2013-03-27 16:12:00,
2013-03-27 12:17:00,40.6,25.7,30.14,North,0,7.0,13.0,55,0.00,,CLR,0.00,211.00,VWS V14.01,2013-03-27 16:17:00,
2013-03-27 12:22:00,40.2,25.8,30.14,NNE,24,5.0,5.0,56,0.00,,CLR,0.00,252.00,VWS V14.01,2013-03-27 16:22:00,
2013-03-27 12:27:00,39.8,25.4,30.14,NNE,13,11.0,19.0,56,0.00,,CLR,0.00,232.00,VWS V14.01,2013-03-27 16:27:00,
2013-03-27 12:32:00,39.6,26.1,30.15,North,0,8.0,12.0,58,0.00,,CLR,0.00,704.00,VWS V14.01,2013-03-27 16:32:00,
2013-03-27 12:37:00,40.1,25.7,30.15,North,357,7.0,17.0,56,0.00,,CLR,0.00,704.00,VWS V14.01,2013-03-27 16:37:00,
2013-03-27 12:42:00,39.8,26.7,30.15,NNE,20,10.0,10.0,59,0.00,,CLR,0.00,213.00,VWS V14.01,2013-03-27 16:42:00,
2013-03-27 12:47:00,40.1,26.9,30.15,North,350,11.0,18.0,59,0.01,,CLR,0.01,213.00,VWS V14.01,2013-03-27 16:47:00,
2013-03-27 12:52:00,40.2,26.2,30.15,North,0,11.0,13.0,57,0.01,,CLR,0.01,245.00,VWS V14.01,2013-03-27 16:52:00,
2013-03-27 12:58:00,40.6,27.0,30.15,North,0,5.0,14.0,58,0.01,,CLR,0.01,331.00,VWS V14.01,2013-03-27 16:58:00,
2013-03-27 13:03:00,41.2,26.7,30.15,North,1,6.0,10.0,56,0.01,,CLR,0.01,331.00,VWS V14.01,2013-03-27 17:03:00,
2013-03-27 13:08:00,42.1,27.1,30.15,NNE,16,7.0,14.0,55,0.01,,CLR,0.01,1079.00,VWS V14.01,2013-03-27 17:08:00,
2013-03-27 13:13:00,42.5,27.9,30.15,NNW,342,8.0,11.0,56,0.01,,CLR,0.01,1103.00,VWS V14.01,2013-03-27 17:13:00,
2013-03-27 13:18:00,42.9,27.4,30.14,North,349,7.0,18.0,54,0.01,,CLR,0.01,1089.00,VWS V14.01,2013-03-27 17:18:00,
2013-03-27 13:23:00,42.3,26.4,30.14,NNE,14,10.0,13.0,53,0.01,,CLR,0.01,1089.00,VWS V14.01,2013-03-27 17:23:00,
2013-03-27 13:28:00,42.3,27.3,30.14,NNW,346,13.0,13.0,55,0.01,,CLR,0.01,1089.00,VWS V14.01,2013-03-27 17:28:00,
2013-03-27 13:33:00,42.6,27.6,30.15,WNW,299,12.0,12.0,55,0.01,,CLR,0.01,1135.00,VWS V14.01,2013-03-27 17:33:00,
2013-03-27 13:38:00,42.3,27.7,30.15,NNW,344,10.0,14.0,56,0.01,,CLR,0.01,1135.00,VWS V14.01,2013-03-27 17:38:00,
2013-03-27 13:43:00,41.6,26.6,30.15,NW,305,15.0,21.0,55,0.01,,CLR,0.01,276.00,VWS V14.01,2013-03-27 17:43:00,
2013-03-27 13:49:00,41.1,26.6,30.15,North,0,5.0,21.0,56,0.01,,CLR,0.01,260.00,VWS V14.01,2013-03-27 17:49:00,
2013-03-27 13:54:00,41.3,27.2,30.15,North,356,7.0,12.0,57,0.00,,CLR,0.01,267.00,VWS V14.01,2013-03-27 17:54:00,
2013-03-27 13:59:00,41.2,26.7,30.15,North,356,2.0,19.0,56,0.00,,CLR,0.01,310.00,VWS V14.01,2013-03-27 17:59:00,
2013-03-27 14:04:00,41.2,27.1,30.15,NNW,344,5.0,13.0,57,0.00,,CLR,0.01,333.00,VWS V14.01,2013-03-27 18:04:00,
2013-03-27 14:09:00,41.6,26.6,30.15,North,359,7.0,17.0,55,0.00,,CLR,0.01,359.00,VWS V14.01,2013-03-27 18:09:00,
2013-03-27 14:14:00,42.1,26.7,30.15,North,0,9.0,16.0,54,0.00,,CLR,0.01,391.00,VWS V14.01,2013-03-27 18:14:00,
2013-03-27 14:19:00,41.9,26.5,30.15,NW,316,20.0,21.0,54,0.00,,CLR,0.01,352.00,VWS V14.01,2013-03-27 18:19:00,
2013-03-27 14:24:00,41.2,26.7,30.15,NNW,332,8.0,14.0,56,0.00,,CLR,0.01,364.00,VWS V14.01,2013-03-27 18:24:00,
2013-03-27 14:29:00,41.2,25.8,30.15,North,0,6.0,14.0,54,0.00,,CLR,0.01,378.00,VWS V14.01,2013-03-27 18:29:00,
2013-03-27 14:35:00,41.3,25.9,30.16,North,350,10.0,18.0,54,0.00,,CLR,0.01,318.00,VWS V14.01,2013-03-27 18:35:00,
2013-03-27 14:40:00,41.5,27.0,30.16,North,3,9.0,18.0,56,0.00,,CLR,0.01,301.00,VWS V14.01,2013-03-27 18:40:00,
2013-03-27 14:45:00,41.8,26.4,30.16,North,356,6.0,19.0,54,0.00,,CLR,0.01,301.00,VWS V14.01,2013-03-27 18:45:00,
2013-03-27 14:50:00,42.1,25.8,30.15,NNW,328,14.0,19.0,52,0.00,,CLR,0.01,301.00,VWS V14.01,2013-03-27 18:50:00,
2013-03-27 14:55:00,41.5,27.4,30.15,NNW,342,7.0,13.0,57,0.00,,CLR,0.01,301.00,VWS V14.01,2013-03-27 18:55:00,
2013-03-27 15:00:00,42.1,28.4,30.15,NNW,330,8.0,14.0,58,0.00,,CLR,0.01,836.00,VWS V14.01,2013-03-27 19:00:00,
2013-03-27 15:05:00,42.5,25.2,30.15,NW,315,12.0,19.0,50,0.00,,CLR,0.01,836.00,VWS V14.01,2013-03-27 19:05:00,
2013-03-27 15:10:00,42.1,25.3,30.15,North,0,3.0,19.0,51,0.00,,CLR,0.01,306.00,VWS V14.01,2013-03-27 19:10:00,
2013-03-27 15:15:00,42.2,25.9,30.15,NNW,346,6.0,12.0,52,0.00,,CLR,0.01,253.00,VWS V14.01,2013-03-27 19:15:00,
2013-03-27 15:20:00,41.8,26.4,30.14,NNW,343,5.0,13.0,54,0.00,,CLR,0.01,303.00,VWS V14.01,2013-03-27 19:20:00,
2013-03-27 15:25:00,42.2,27.2,30.14,NW,309,20.0,21.0,55,0.00,,CLR,0.01,941.00,VWS V14.01,2013-03-27 19:25:00,
2013-03-27 15:30:00,42.9,27.4,30.14,WNW,292,15.0,21.0,54,0.00,,CLR,0.01,955.00,VWS V14.01,2013-03-27 19:30:00,
2013-03-27 15:35:00,43.6,27.6,30.14,NNW,339,7.0,13.0,53,0.00,,CLR,0.01,955.00,VWS V14.01,2013-03-27 19:35:00,
2013-03-27 15:40:00,42.9,25.6,30.14,NNE,13,6.0,14.0,50,0.00,,CLR,0.01,280.00,VWS V14.01,2013-03-27 19:40:00,
2013-03-27 15:46:00,43.1,26.2,30.14,NNW,336,3.0,7.0,51,0.00,,CLR,0.01,306.00,VWS V14.01,2013-03-27 19:46:00,
2013-03-27 15:51:00,42.9,25.1,30.14,NW,316,13.0,16.0,49,0.00,,CLR,0.01,331.00,VWS V14.01,2013-03-27 19:51:00,
2013-03-27 15:56:00,43.2,25.4,30.14,North,0,5.0,14.0,49,0.00,,CLR,0.01,853.00,VWS V14.01,2013-03-27 19:56:00,
2013-03-27 16:01:00,44.2,25.3,30.13,NNW,329,13.0,19.0,47,0.00,,CLR,0.01,903.00,VWS V14.01,2013-03-27 20:01:00,
2013-03-27 16:06:00,43.2,24.4,30.13,North,356,14.0,18.0,47,0.00,,CLR,0.01,361.00,VWS V14.01,2013-03-27 20:06:00,
2013-03-27 16:12:00,42.9,23.6,30.13,North,354,10.0,21.0,46,0.00,,CLR,0.01,651.00,VWS V14.01,2013-03-27 20:12:00,
2013-03-27 16:17:00,42.6,24.3,30.13,NNW,339,13.0,17.0,48,0.00,,CLR,0.01,507.00,VWS V14.01,2013-03-27 20:17:00,
2013-03-27 16:22:00,42.2,23.9,30.13,NNW,332,12.0,14.0,48,0.00,,CLR,0.01,148.00,VWS V14.01,2013-03-27 20:22:00,
2013-03-27 16:27:00,41.5,23.8,30.13,North,356,9.0,19.0,49,0.00,,CLR,0.01,188.00,VWS V14.01,2013-03-27 20:27:00,
2013-03-27 16:32:00,41.2,24.9,30.13,North,0,6.0,8.0,52,0.00,,CLR,0.01,164.00,VWS V14.01,2013-03-27 20:32:00,
2013-03-27 16:37:00,41.8,25.0,30.13,North,0,7.0,11.0,51,0.00,,CLR,0.01,589.00,VWS V14.01,2013-03-27 20:37:00,
2013-03-27 16:42:00,42.6,25.8,30.13,North,0,6.0,8.0,51,0.00,,CLR,0.01,574.00,VWS V14.01,2013-03-27 20:42:00,
2013-03-27 16:48:00,42.9,26.0,30.13,NNW,332,12.0,16.0,51,0.00,,CLR,0.01,544.00,VWS V14.01,2013-03-27 20:48:00,
2013-03-27 16:53:00,42.8,25.5,30.13,North,0,2.0,5.0,50,0.00,,CLR,0.01,479.00,VWS V14.01,2013-03-27 20:53:00,
2013-03-27 16:58:00,42.6,25.8,30.13,NNE,30,10.0,12.0,51,0.00,,CLR,0.01,475.00,VWS V14.01,2013-03-27 20:58:00,
2013-03-27 17:03:00,42.8,25.9,30.13,NNW,342,3.0,8.0,51,0.00,,CLR,0.01,480.00,VWS V14.01,2013-03-27 21:03:00,
2013-03-27 17:08:00,42.9,25.6,30.13,North,0,7.0,13.0,50,0.00,,CLR,0.01,465.00,VWS V14.01,2013-03-27 21:08:00,
2013-03-27 17:13:00,42.9,26.0,30.13,NNE,28,7.0,12.0,51,0.00,,CLR,0.01,470.00,VWS V14.01,2013-03-27 21:13:00,
2013-03-27 17:18:00,42.5,26.1,30.13,ENE,64,11.0,14.0,52,0.00,,CLR,0.01,480.00,VWS V14.01,2013-03-27 21:18:00,
2013-03-27 17:24:00,42.1,26.7,30.13,North,0,5.0,7.0,54,0.00,,CLR,0.01,169.00,VWS V14.01,2013-03-27 21:24:00,
2013-03-27 17:29:00,41.9,26.0,30.13,North,0,12.0,17.0,53,0.00,,CLR,0.01,150.00,VWS V14.01,2013-03-27 21:29:00,
2013-03-27 17:34:00,41.8,25.5,30.14,North,359,11.0,19.0,52,0.00,,CLR,0.01,187.00,VWS V14.01,2013-03-27 21:34:00,
2013-03-27 17:39:00,42.8,25.9,30.14,North,349,8.0,19.0,51,0.00,,CLR,0.01,470.00,VWS V14.01,2013-03-27 21:39:00,
2013-03-27 17:44:00,42.9,25.1,30.14,NW,311,14.0,17.0,49,0.00,,CLR,0.01,132.00,VWS V14.01,2013-03-27 21:44:00,
2013-03-27 17:49:00,41.9,25.1,30.14,NNW,335,8.0,17.0,51,0.00,,CLR,0.01,157.00,VWS V14.01,2013-03-27 21:49:00,
2013-03-27 17:54:00,41.6,25.8,30.14,North,356,6.0,8.0,53,0.00,,CLR,0.01,143.00,VWS V14.01,2013-03-27 21:54:00,
2013-03-27 17:59:00,41.5,25.2,30.14,North,0,10.0,11.0,52,0.00,,CLR,0.01,135.00,VWS V14.01,2013-03-27 21:59:00,
2013-03-27 18:04:00,41.6,25.3,30.14,NW,316,7.0,12.0,52,0.00,,CLR,0.01,318.00,VWS V14.01,2013-03-27 22:04:00,
2013-03-27 18:10:00,42.1,24.8,30.14,NW,319,7.0,12.0,50,0.00,,CLR,0.01,324.00,VWS V14.01,2013-03-27 22:10:00,
2013-03-27 18:15:00,42.6,25.3,30.14,NW,326,6.0,10.0,50,0.00,,CLR,0.01,285.00,VWS V14.01,2013-03-27 22:15:00,
2013-03-27 18:20:00,42.5,25.2,30.14,North,0,11.0,13.0,50,0.00,,CLR,0.01,227.00,VWS V14.01,2013-03-27 22:20:00,
2013-03-27 18:25:00,42.1,24.8,30.14,NW,322,11.0,13.0,50,0.00,,CLR,0.01,77.00,VWS V14.01,2013-03-27 22:25:00,
2013-03-27 18:30:00,41.5,24.7,30.14,North,0,7.0,13.0,51,0.00,,CLR,0.01,65.00,VWS V14.01,2013-03-27 22:30:00,
2013-03-27 18:35:00,41.2,24.9,30.15,North,0,7.0,10.0,52,0.00,,CLR,0.01,70.00,VWS V14.01,2013-03-27 22:35:00,
2013-03-27 18:40:00,40.9,25.1,30.15,NNW,333,6.0,12.0,53,0.00,,CLR,0.01,72.00,VWS V14.01,2013-03-27 22:40:00,
2013-03-27 18:45:00,41.5,25.2,30.15,NW,318,8.0,11.0,52,0.00,,CLR,0.01,162.00,VWS V14.01,2013-03-27 22:45:00,
2013-03-27 18:50:00,41.6,25.8,30.15,NNW,344,6.0,11.0,53,0.00,,CLR,0.01,148.00,VWS V14.01,2013-03-27 22:50:00,
2013-03-27 18:55:00,41.3,25.9,30.15,NNW,330,6.0,8.0,54,0.00,,CLR,0.01,49.00,VWS V14.01,2013-03-27 22:55:00,
2013-03-27 19:00:00,40.6,26.6,30.15,NNW,340,5.0,14.0,57,0.00,,CLR,0.01,32.00,VWS V14.01,2013-03-27 23:00:00,
2013-03-27 19:06:00,39.9,26.3,30.16,NNW,333,5.0,12.0,58,0.00,,CLR,0.01,26.00,VWS V14.01,2013-03-27 23:06:00,
2013-03-27 19:11:00,39.5,26.8,30.16,NW,326,5.0,12.0,60,0.00,,CLR,0.01,23.00,VWS V14.01,2013-03-27 23:11:00,
2013-03-27 19:16:00,39.2,26.5,30.16,NNW,330,7.0,13.0,60,0.00,,CLR,0.01,14.00,VWS V14.01,2013-03-27 23:16:00,
2013-03-27 19:21:00,39.1,26.8,30.16,NNW,330,5.0,13.0,61,0.00,,CLR,0.01,11.00,VWS V14.01,2013-03-27 23:21:00,
2013-03-27 19:26:00,38.9,26.6,30.16,NW,308,5.0,11.0,61,0.00,,CLR,0.01,7.00,VWS V14.01,2013-03-27 23:26:00,
2013-03-27 19:31:00,38.9,27.0,30.16,NNW,340,6.0,11.0,62,0.00,,CLR,0.01,5.00,VWS V14.01,2013-03-27 23:31:00,
2013-03-27 19:36:00,38.8,26.5,30.16,North,349,3.0,8.0,61,0.00,,CLR,0.01,5.00,VWS V14.01,2013-03-27 23:36:00,
2013-03-27 19:42:00,38.8,25.7,30.16,NW,313,10.0,11.0,59,0.00,,CLR,0.01,0.00,VWS V14.01,2013-03-27 23:42:00,
2013-03-27 19:47:00,38.8,25.7,30.16,North,356,4.0,8.0,59,0.00,,CLR,0.01,0.00,VWS V14.01,2013-03-27 23:47:00,
2013-03-27 19:52:00,38.8,26.1,30.16,NNW,335,1.0,8.0,60,0.00,,CLR,0.01,0.00,VWS V14.01,2013-03-27 23:52:00,
2013-03-27 19:57:00,38.6,25.9,30.16,NNW,328,5.0,7.0,60,0.00,,CLR,0.01,0.00,VWS V14.01,2013-03-27 23:57:00,
2013-03-27 20:02:00,38.6,25.9,30.17,North,353,2.0,7.0,60,0.00,,CLR,0.01,0.00,VWS V14.01,2013-03-28 00:02:00,
2013-03-27 20:07:00,38.6,25.9,30.17,NW,320,3.0,6.0,60,0.00,,CLR,0.01,0.00,VWS V14.01,2013-03-28 00:07:00,
2013-03-27 20:12:00,38.6,25.9,30.17,NW,325,3.0,6.0,60,0.00,,CLR,0.01,0.00,VWS V14.01,2013-03-28 00:12:00,
2013-03-27 20:17:00,38.5,25.4,30.17,NNW,337,4.0,7.0,59,0.00,,CLR,0.01,0.00,VWS V14.01,2013-03-28 00:17:00,
2013-03-27 20:22:00,38.5,25.4,30.17,NNW,343,5.0,5.0,59,0.00,,CLR,0.01,0.00,VWS V14.01,2013-03-28 00:22:00,
2013-03-27 20:27:00,38.3,24.8,30.17,NW,323,5.0,9.0,58,0.00,,CLR,0.01,0.00,VWS V14.01,2013-03-28 00:27:00,
2013-03-27 20:32:00,38.2,25.1,30.17,North,353,3.0,5.0,59,0.00,,CLR,0.01,0.00,VWS V14.01,2013-03-28 00:32:00,
2013-03-27 20:37:00,38.1,25.5,30.17,NW,308,8.0,9.0,60,0.00,,CLR,0.01,0.00,VWS V14.01,2013-03-28 00:37:00,
2013-03-27 20:42:00,37.9,25.3,30.17,North,0,3.0,5.0,60,0.00,,CLR,0.01,0.00,VWS V14.01,2013-03-28 00:42:00,
2013-03-27 20:47:00,37.8,25.2,30.17,North,353,8.0,11.0,60,0.00,,CLR,0.01,0.00,VWS V14.01,2013-03-28 00:47:00,
2013-03-27 20:52:00,37.8,25.2,30.17,NNW,337,2.0,4.0,60,0.00,,CLR,0.01,0.00,VWS V14.01,2013-03-28 00:52:00,
2013-03-27 20:57:00,37.6,25.4,30.17,North,354,4.0,10.0,61,0.00,,CLR,0.01,0.00,VWS V14.01,2013-03-28 00:57:00,
2013-03-27 21:03:00,37.6,25.0,30.17,North,359,1.0,6.0,60,0.00,,CLR,0.01,0.00,VWS V14.01,2013-03-28 01:03:00,
2013-03-27 21:08:00,37.6,24.6,30.17,North,1,7.0,16.0,59,0.00,,CLR,0.01,0.00,VWS V14.01,2013-03-28 01:08:00,
2013-03-27 21:13:00,37.8,25.2,30.17,North,0,6.0,8.0,60,0.00,,CLR,0.01,0.00,VWS V14.01,2013-03-28 01:13:00,
2013-03-27 21:18:00,37.8,24.8,30.17,NNW,335,5.0,12.0,59,0.00,,CLR,0.01,0.00,VWS V14.01,2013-03-28 01:18:00,
2013-03-27 21:23:00,37.8,25.2,30.17,North,0,6.0,10.0,60,0.00,,CLR,0.01,0.00,VWS V14.01,2013-03-28 01:23:00,
2013-03-27 21:28:00,37.8,24.8,30.17,North,357,6.0,11.0,59,0.00,,CLR,0.01,0.00,VWS V14.01,2013-03-28 01:28:00,
2013-03-27 21:33:00,37.8,25.2,30.17,North,356,3.0,6.0,60,0.00,,CLR,0.01,0.00,VWS V14.01,2013-03-28 01:33:00,
2013-03-27 21:38:00,37.9,24.9,30.17,NNW,340,4.0,14.0,59,0.00,,CLR,0.01,0.00,VWS V14.01,2013-03-28 01:38:00,
2013-03-27 21:43:00,37.9,24.5,30.17,NNW,344,6.0,13.0,58,0.00,,CLR,0.01,0.00,VWS V14.01,2013-03-28 01:43:00,
2013-03-27 21:49:00,37.9,24.9,30.17,North,350,6.0,13.0,59,0.00,,CLR,0.01,0.00,VWS V14.01,2013-03-28 01:49:00,
2013-03-27 21:54:00,37.9,24.9,30.17,North,0,4.0,7.0,59,0.00,,CLR,0.01,0.00,VWS V14.01,2013-03-28 01:54:00,
2013-03-27 21:59:00,37.9,24.5,30.17,North,0,11.0,14.0,58,0.00,,CLR,0.01,0.00,VWS V14.01,2013-03-28 01:59:00,
2013-03-27 22:04:00,37.9,24.9,30.17,North,0,4.0,11.0,59,0.00,,CLR,0.01,0.00,VWS V14.01,2013-03-28 02:04:00,
2013-03-27 22:09:00,38.1,25.1,30.17,North,0,3.0,11.0,59,0.00,,CLR,0.01,0.00,VWS V14.01,2013-03-28 02:09:00,
2013-03-27 22:14:00,37.9,24.9,30.17,North,357,2.0,8.0,59,0.00,,CLR,0.01,0.00,VWS V14.01,2013-03-28 02:14:00,
2013-03-27 22:19:00,37.9,24.9,30.17,NNW,340,3.0,10.0,59,0.00,,CLR,0.01,0.00,VWS V14.01,2013-03-28 02:19:00,
2013-03-27 22:24:00,37.8,25.2,30.17,NNW,343,6.0,7.0,60,0.00,,CLR,0.01,0.00,VWS V14.01,2013-03-28 02:24:00,
2013-03-27 22:30:00,37.6,25.0,30.17,NNW,336,2.0,12.0,60,0.00,,CLR,0.01,0.00,VWS V14.01,2013-03-28 02:30:00,
2013-03-27 22:35:00,37.6,25.0,30.17,North,0,6.0,10.0,60,0.00,,CLR,0.01,0.00,VWS V14.01,2013-03-28 02:35:00,
2013-03-27 22:40:00,37.8,25.2,30.17,North,356,3.0,14.0,60,0.00,,CLR,0.01,0.00,VWS V14.01,2013-03-28 02:40:00,
2013-03-27 22:45:00,37.8,25.6,30.17,North,0,2.0,6.0,61,0.00,,CLR,0.01,0.00,VWS V14.01,2013-03-28 02:45:00,
2013-03-27 22:50:00,37.8,25.2,30.17,North,0,5.0,12.0,60,0.00,,CLR,0.01,0.00,VWS V14.01,2013-03-28 02:50:00,
2013-03-27 22:55:00,37.9,24.9,30.17,NW,305,6.0,7.0,59,0.00,,CLR,0.01,0.00,VWS V14.01,2013-03-28 02:55:00,
2013-03-27 23:00:00,38.1,25.1,30.17,North,352,3.0,8.0,59,0.00,,CLR,0.01,0.00,VWS V14.01,2013-03-28 03:00:00,
2013-03-27 23:05:00,37.9,25.3,30.17,North,3,6.0,11.0,60,0.00,,CLR,0.01,0.00,VWS V14.01,2013-03-28 03:05:00,
2013-03-27 23:10:00,38.1,25.1,30.17,North,8,7.0,13.0,59,0.00,,CLR,0.01,0.00,VWS V14.01,2013-03-28 03:10:00,
2013-03-27 23:16:00,38.1,25.1,30.17,North,0,8.0,12.0,59,0.00,,CLR,0.01,0.00,VWS V14.01,2013-03-28 03:16:00,
2013-03-27 23:21:00,38.1,25.1,30.17,NNW,329,2.0,13.0,59,0.00,,CLR,0.01,0.00,VWS V14.01,2013-03-28 03:21:00,
2013-03-27 23:26:00,38.1,25.1,30.17,North,356,3.0,10.0,59,0.00,,CLR,0.01,0.00,VWS V14.01,2013-03-28 03:26:00,
2013-03-27 23:31:00,38.1,25.5,30.17,North,349,3.0,11.0,60,0.00,,CLR,0.01,0.00,VWS V14.01,2013-03-28 03:31:00,
2013-03-27 23:36:00,38.1,25.5,30.17,NW,326,5.0,10.0,60,0.00,,CLR,0.01,0.00,VWS V14.01,2013-03-28 03:36:00,
2013-03-27 23:41:00,38.1,25.1,30.17,NNW,329,7.0,12.0,59,0.00,,CLR,0.01,0.00,VWS V14.01,2013-03-28 03:41:00,
2013-03-27 23:47:00,38.2,24.7,30.17,North,350,5.0,13.0,58,0.00,,CLR,0.01,0.00,VWS V14.01,2013-03-28 03:47:00,
2013-03-27 23:52:00,38.2,24.7,30.17,North,0,7.0,18.0,58,0.00,,CLR,0.01,0.00,VWS V14.01,2013-03-28 03:52:00,
2013-03-27 23:57:00,38.2,24.7,30.17,North,0,6.0,11.0,58,0.00,,CLR,0.01,0.00,VWS V14.01,2013-03-28 03:57:00,